sensor_id;sensor_type;location;lat;lon;timestamp;pressure;altitude;pressure_sealevel;temperature;humidity
44001;BME280;29660;42.892;24.710;2023-11-21T00:04:51;96790.59;;;2.15;100.00
44001;BME280;29660;42.892;24.710;2023-11-21T00:10:14;96855.69;;;2.53;100.00
44001;BME280;29660;42.892;24.710;2023-11-21T00:15:36;96852.25;;;2.53;100.00
44001;BME280;29660;42.892;24.710;2023-11-21T00:20:58;96856.56;;;2.42;100.00
44001;BME280;29660;42.892;24.710;2023-11-21T00:26:21;96848.75;;;2.47;100.00
44001;BME280;29660;42.892;24.710;2023-11-21T00:31:52;96793.69;;;2.12;100.00
44001;BME280;29660;42.892;24.710;2023-11-21T00:37:15;96784.84;;;2.01;100.00
44001;BME280;29660;42.892;24.710;2023-11-21T00:42:37;96696.28;;;1.44;100.00
44001;BME280;29660;42.892;24.710;2023-11-21T00:47:59;96827.44;;;2.32;100.00
44001;BME280;29660;42.892;24.710;2023-11-21T00:53:22;96534.16;;;0.37;100.00
44001;BME280;29660;42.892;24.710;2023-11-21T00:58:44;96826.63;;;2.31;100.00
44001;BME280;29660;42.892;24.710;2023-11-21T01:04:08;96645.03;;;1.13;100.00
44001;BME280;29660;42.892;24.710;2023-11-21T01:09:30;96817.28;;;2.24;100.00
44001;BME280;29660;42.892;24.710;2023-11-21T01:14:53;96813.88;;;2.23;100.00
44001;BME280;29660;42.892;24.710;2023-11-21T01:20:15;96802.63;;;2.11;100.00
44001;BME280;29660;42.892;24.710;2023-11-21T01:25:37;96817.69;;;2.15;100.00
44001;BME280;29660;42.892;24.710;2023-11-21T01:30:59;96809.66;;;2.22;100.00
44001;BME280;29660;42.892;24.710;2023-11-21T01:36:22;96804.72;;;2.26;100.00
44001;BME280;29660;42.892;24.710;2023-11-21T01:41:44;96804.97;;;2.24;100.00
44001;BME280;29660;42.892;24.710;2023-11-21T01:47:06;96803.66;;;2.27;100.00
44001;BME280;29660;42.892;24.710;2023-11-21T01:52:30;96791.31;;;2.27;100.00
44001;BME280;29660;42.892;24.710;2023-11-21T01:57:52;96796.16;;;2.35;100.00
44001;BME280;29660;42.892;24.710;2023-11-21T02:03:15;96787.41;;;2.30;100.00
44001;BME280;29660;42.892;24.710;2023-11-21T02:08:37;96782.22;;;2.35;100.00
44001;BME280;29660;42.892;24.710;2023-11-21T02:14:00;96775.84;;;2.31;100.00
44001;BME280;29660;42.892;24.710;2023-11-21T02:19:23;96774.56;;;2.33;100.00
44001;BME280;29660;42.892;24.710;2023-11-21T02:24:47;96780.00;;;2.27;100.00
44001;BME280;29660;42.892;24.710;2023-11-21T02:30:09;96817.28;;;2.24;100.00
44001;BME280;29660;42.892;24.710;2023-11-21T02:35:35;96625.81;;;1.41;100.00
44001;BME280;29660;42.892;24.710;2023-11-21T02:40:57;96763.72;;;2.30;100.00
44001;BME280;29660;42.892;24.710;2023-11-21T02:46:21;96760.84;;;2.31;100.00
44001;BME280;29660;42.892;24.710;2023-11-21T02:51:44;96777.28;;;2.21;100.00
44001;BME280;29660;42.892;24.710;2023-11-21T02:57:06;96757.97;;;2.16;100.00
44001;BME280;29660;42.892;24.710;2023-11-21T03:02:29;96760.53;;;2.11;100.00
44001;BME280;29660;42.892;24.710;2023-11-21T03:07:51;96763.31;;;2.04;100.00
44001;BME280;29660;42.892;24.710;2023-11-21T03:13:14;96750.16;;;2.04;100.00
44001;BME280;29660;42.892;24.710;2023-11-21T03:18:37;96671.25;;;1.54;100.00
44001;BME280;29660;42.892;24.710;2023-11-21T03:23:59;96776.94;;;2.01;100.00
44001;BME280;29660;42.892;24.710;2023-11-21T03:29:22;96612.00;;;1.17;100.00
44001;BME280;29660;42.892;24.710;2023-11-21T03:34:55;96687.94;;;1.47;100.00
44001;BME280;29660;42.892;24.710;2023-11-21T03:40:18;96757.00;;;1.88;100.00
44001;BME280;29660;42.892;24.710;2023-11-21T03:45:40;96761.44;;;1.88;100.00
44001;BME280;29660;42.892;24.710;2023-11-21T03:51:02;96769.13;;;1.89;100.00
44001;BME280;29660;42.892;24.710;2023-11-21T03:56:25;96750.66;;;1.72;100.00
44001;BME280;29660;42.892;24.710;2023-11-21T04:01:48;96768.59;;;1.76;100.00
44001;BME280;29660;42.892;24.710;2023-11-21T04:07:10;96736.50;;;1.45;100.00
44001;BME280;29660;42.892;24.710;2023-11-21T04:12:32;96771.94;;;1.71;100.00
44001;BME280;29660;42.892;24.710;2023-11-21T04:17:55;96573.41;;;0.44;100.00
44001;BME280;29660;42.892;24.710;2023-11-21T04:23:18;96764.31;;;1.69;100.00
44001;BME280;29660;42.892;24.710;2023-11-21T04:28:40;96620.00;;;0.94;100.00
44001;BME280;29660;42.892;24.710;2023-11-21T04:34:03;96618.50;;;0.98;100.00
44001;BME280;29660;42.892;24.710;2023-11-21T04:39:28;96754.78;;;1.97;100.00
44001;BME280;29660;42.892;24.710;2023-11-21T04:44:50;96754.28;;;2.00;100.00
44001;BME280;29660;42.892;24.710;2023-11-21T04:50:14;96757.34;;;2.09;100.00
44001;BME280;29660;42.892;24.710;2023-11-21T04:55:36;96771.06;;;2.28;100.00
44001;BME280;29660;42.892;24.710;2023-11-21T05:00:58;96715.41;;;1.85;100.00
44001;BME280;29660;42.892;24.710;2023-11-21T05:06:21;96774.25;;;2.30;100.00
44001;BME280;29660;42.892;24.710;2023-11-21T05:11:43;96790.84;;;2.47;100.00
44001;BME280;29660;42.892;24.710;2023-11-21T05:17:05;96635.56;;;1.58;100.00
44001;BME280;29660;42.892;24.710;2023-11-21T05:22:27;96798.91;;;2.57;100.00
44001;BME280;29660;42.892;24.710;2023-11-21T05:27:49;96798.16;;;2.62;100.00
44001;BME280;29660;42.892;24.710;2023-11-21T05:33:11;96785.25;;;2.60;100.00
44001;BME280;29660;42.892;24.710;2023-11-21T05:38:35;96781.06;;;2.81;100.00
44001;BME280;29660;42.892;24.710;2023-11-21T05:43:57;96743.94;;;2.61;100.00
44001;BME280;29660;42.892;24.710;2023-11-21T05:49:19;96782.97;;;2.86;100.00
44001;BME280;29660;42.892;24.710;2023-11-21T05:54:43;96786.72;;;2.90;100.00
44001;BME280;29660;42.892;24.710;2023-11-21T06:00:08;96780.81;;;3.00;100.00
44001;BME280;29660;42.892;24.710;2023-11-21T06:05:33;96773.81;;;3.10;100.00
44001;BME280;29660;42.892;24.710;2023-11-21T06:10:56;96635.53;;;2.25;100.00
44001;BME280;29660;42.892;24.710;2023-11-21T06:16:18;96640.00;;;2.46;100.00
44001;BME280;29660;42.892;24.710;2023-11-21T06:21:45;96647.75;;;2.53;100.00
44001;BME280;29660;42.892;24.710;2023-11-21T06:27:07;96703.53;;;3.16;100.00
44001;BME280;29660;42.892;24.710;2023-11-21T06:32:30;96766.63;;;3.72;100.00
44001;BME280;29660;42.892;24.710;2023-11-21T06:37:52;96776.34;;;3.93;100.00
44001;BME280;29660;42.892;24.710;2023-11-21T06:43:14;96776.81;;;4.17;100.00
44001;BME280;29660;42.892;24.710;2023-11-21T06:48:37;96747.50;;;4.13;100.00
44001;BME280;29660;42.892;24.710;2023-11-21T06:54:00;96774.69;;;4.46;100.00
44001;BME280;29660;42.892;24.710;2023-11-21T06:59:22;96773.25;;;4.71;100.00
44001;BME280;29660;42.892;24.710;2023-11-21T07:04:46;96738.38;;;4.68;100.00
44001;BME280;29660;42.892;24.710;2023-11-21T07:10:08;96747.56;;;5.03;100.00
44001;BME280;29660;42.892;24.710;2023-11-21T07:22:04;96723.97;;;5.70;100.00
44001;BME280;29660;42.892;24.710;2023-11-21T07:27:27;96769.34;;;6.50;100.00
44001;BME280;29660;42.892;24.710;2023-11-21T07:32:50;96721.88;;;6.74;100.00
44001;BME280;29660;42.892;24.710;2023-11-21T07:38:12;96715.09;;;7.27;100.00
44001;BME280;29660;42.892;24.710;2023-11-21T07:43:35;96707.91;;;7.77;100.00
44001;BME280;29660;42.892;24.710;2023-11-21T07:48:57;96683.00;;;8.07;100.00
44001;BME280;29660;42.892;24.710;2023-11-21T07:54:20;96725.53;;;8.71;100.00
44001;BME280;29660;42.892;24.710;2023-11-21T07:59:43;96720.06;;;9.10;99.17
44001;BME280;29660;42.892;24.710;2023-11-21T08:05:05;96717.28;;;9.44;99.11
44001;BME280;29660;42.892;24.710;2023-11-21T08:10:32;96699.66;;;9.48;100.00
44001;BME280;29660;42.892;24.710;2023-11-21T08:15:54;96705.91;;;9.95;95.04
44001;BME280;29660;42.892;24.710;2023-11-21T08:21:16;96603.72;;;9.53;92.96
44001;BME280;29660;42.892;24.710;2023-11-21T08:26:39;96725.88;;;10.49;93.36
44001;BME280;29660;42.892;24.710;2023-11-21T08:32:01;96693.00;;;10.68;89.03
44001;BME280;29660;42.892;24.710;2023-11-21T08:37:24;96695.13;;;10.98;85.45
44001;BME280;29660;42.892;24.710;2023-11-21T08:42:46;96671.59;;;11.28;79.61
44001;BME280;29660;42.892;24.710;2023-11-21T08:48:09;96498.06;;;10.28;75.91
44001;BME280;29660;42.892;24.710;2023-11-21T08:53:33;96671.50;;;11.69;78.40
44001;BME280;29660;42.892;24.710;2023-11-21T08:58:55;96654.22;;;11.89;74.34
44001;BME280;29660;42.892;24.710;2023-11-21T09:04:19;96649.06;;;12.15;75.98
44001;BME280;29660;42.892;24.710;2023-11-21T09:09:41;96640.09;;;12.42;72.39
44001;BME280;29660;42.892;24.710;2023-11-21T09:15:04;96477.59;;;11.68;67.69
44001;BME280;29660;42.892;24.710;2023-11-21T09:20:27;96614.50;;;12.90;67.49
44001;BME280;29660;42.892;24.710;2023-11-21T09:25:50;96600.69;;;13.14;64.93
44001;BME280;29660;42.892;24.710;2023-11-21T09:31:13;96593.81;;;13.47;66.81
44001;BME280;29660;42.892;24.710;2023-11-21T09:36:37;96586.72;;;13.78;62.47
44001;BME280;29660;42.892;24.710;2023-11-21T09:47:35;96540.13;;;14.08;57.46
44001;BME280;29660;42.892;24.710;2023-11-21T09:53:16;96557.34;;;14.45;58.92
44001;BME280;29660;42.892;24.710;2023-11-21T09:58:40;96539.16;;;14.60;51.40
44001;BME280;29660;42.892;24.710;2023-11-21T10:04:02;96156.88;;;12.34;53.17
44001;BME280;29660;42.892;24.710;2023-11-21T10:09:24;96534.19;;;15.00;52.88
44001;BME280;29660;42.892;24.710;2023-11-21T10:14:50;96530.94;;;15.15;50.72
44001;BME280;29660;42.892;24.710;2023-11-21T10:20:14;96502.56;;;15.27;50.70
44001;BME280;29660;42.892;24.710;2023-11-21T10:25:37;96405.53;;;14.74;46.35
44001;BME280;29660;42.892;24.710;2023-11-21T10:30:59;96491.13;;;15.51;44.16
44001;BME280;29660;42.892;24.710;2023-11-21T10:36:25;96458.44;;;15.49;43.61
44001;BME280;29660;42.892;24.710;2023-11-21T10:41:48;96356.78;;;15.05;46.73
44001;BME280;29660;42.892;24.710;2023-11-21T10:47:11;96455.66;;;16.03;44.62
44001;BME280;29660;42.892;24.710;2023-11-21T10:52:34;96443.78;;;16.28;45.99
44001;BME280;29660;42.892;24.710;2023-11-21T10:57:59;96433.38;;;16.39;45.29
44001;BME280;29660;42.892;24.710;2023-11-21T11:03:23;96416.19;;;16.43;41.85
44001;BME280;29660;42.892;24.710;2023-11-21T11:08:46;96404.28;;;16.57;44.96
44001;BME280;29660;42.892;24.710;2023-11-21T11:14:13;96389.34;;;16.72;41.12
44001;BME280;29660;42.892;24.710;2023-11-21T11:19:36;96393.03;;;16.79;44.40
44001;BME280;29660;42.892;24.710;2023-11-21T11:36:26;96378.78;;;16.79;44.27
44001;BME280;29660;42.892;24.710;2023-11-21T11:41:50;96279.44;;;16.21;43.01
44001;BME280;29660;42.892;24.710;2023-11-21T11:47:14;96315.50;;;16.44;42.36
44001;BME280;29660;42.892;24.710;2023-11-21T11:52:44;96354.78;;;16.74;42.65
44001;BME280;29660;42.892;24.710;2023-11-21T11:58:07;96364.78;;;16.73;43.49
44001;BME280;29660;42.892;24.710;2023-11-21T12:03:30;96316.16;;;16.41;43.09
44001;BME280;29660;42.892;24.710;2023-11-21T12:08:52;96356.59;;;16.57;43.11
44001;BME280;29660;42.892;24.710;2023-11-21T12:14:15;96330.31;;;16.26;43.61
44001;BME280;29660;42.892;24.710;2023-11-21T12:19:37;96275.03;;;15.88;43.20
44001;BME280;29660;42.892;24.710;2023-11-21T12:25:00;96350.94;;;16.34;42.85
44001;BME280;29660;42.892;24.710;2023-11-21T12:30:24;96359.25;;;16.29;43.59
44001;BME280;29660;42.892;24.710;2023-11-21T12:35:46;96351.84;;;16.26;43.31
44001;BME280;29660;42.892;24.710;2023-11-21T12:41:11;96298.66;;;15.95;43.54
44001;BME280;29660;42.892;24.710;2023-11-21T12:46:34;96185.91;;;15.13;43.66
44001;BME280;29660;42.892;24.710;2023-11-21T12:51:57;96331.03;;;15.99;43.61
44001;BME280;29660;42.892;24.710;2023-11-21T12:57:19;96326.34;;;15.95;43.75
44001;BME280;29660;42.892;24.710;2023-11-21T13:02:41;96333.19;;;15.93;44.10
44001;BME280;29660;42.892;24.710;2023-11-21T13:08:06;96335.09;;;15.92;44.71
44001;BME280;29660;42.892;24.710;2023-11-21T13:13:33;96221.75;;;15.17;44.76
44001;BME280;29660;42.892;24.710;2023-11-21T13:18:56;96338.31;;;15.86;44.31
44001;BME280;29660;42.892;24.710;2023-11-21T13:24:18;96343.59;;;15.82;45.38
44001;BME280;29660;42.892;24.710;2023-11-21T13:29:40;96345.50;;;15.69;44.79
44001;BME280;29660;42.892;24.710;2023-11-21T13:35:03;96360.59;;;15.62;45.67
44001;BME280;29660;42.892;24.710;2023-11-21T13:40:30;96234.31;;;14.80;45.45
44001;BME280;29660;42.892;24.710;2023-11-21T13:45:53;96367.25;;;15.43;45.89
44001;BME280;29660;42.892;24.710;2023-11-21T13:51:36;96304.38;;;14.99;46.86
44001;BME280;29660;42.892;24.710;2023-11-21T13:57:07;96357.91;;;15.16;46.46
44001;BME280;29660;42.892;24.710;2023-11-21T14:02:29;96226.59;;;14.24;46.24
44001;BME280;29660;42.892;24.710;2023-11-21T14:07:57;96342.31;;;14.97;47.04
44001;BME280;29660;42.892;24.710;2023-11-21T14:13:25;96355.03;;;14.88;47.27
44001;BME280;29660;42.892;24.710;2023-11-21T14:18:47;96292.34;;;14.30;47.37
44001;BME280;29660;42.892;24.710;2023-11-21T14:24:19;96365.78;;;14.67;48.44
44001;BME280;29660;42.892;24.710;2023-11-21T14:29:42;96376.31;;;14.52;48.67
44001;BME280;29660;42.892;24.710;2023-11-21T14:35:07;96349.91;;;14.33;48.90
44001;BME280;29660;42.892;24.710;2023-11-21T14:40:31;96354.75;;;14.39;49.70
44001;BME280;29660;42.892;24.710;2023-11-21T14:45:55;96335.78;;;14.23;49.69
44001;BME280;29660;42.892;24.710;2023-11-21T14:51:21;96341.72;;;14.29;50.12
44001;BME280;29660;42.892;24.710;2023-11-21T14:56:43;96334.88;;;14.19;49.82
44001;BME280;29660;42.892;24.710;2023-11-21T15:02:07;96335.84;;;14.15;50.63
44001;BME280;29660;42.892;24.710;2023-11-21T15:07:43;96342.69;;;14.04;52.82
44001;BME280;29660;42.892;24.710;2023-11-21T15:13:07;96335.34;;;13.92;54.14
44001;BME280;29660;42.892;24.710;2023-11-21T15:18:33;96316.44;;;13.59;55.58
44001;BME280;29660;42.892;24.710;2023-11-21T15:23:56;96354.22;;;13.66;56.94
44001;BME280;29660;42.892;24.710;2023-11-21T15:29:19;96363.72;;;13.55;58.40
44001;BME280;29660;42.892;24.710;2023-11-21T15:34:43;96362.66;;;13.47;59.02
44001;BME280;29660;42.892;24.710;2023-11-21T15:40:06;96354.84;;;13.24;62.31
44001;BME280;29660;42.892;24.710;2023-11-21T15:45:30;96363.84;;;13.02;64.64
44001;BME280;29660;42.892;24.710;2023-11-21T15:50:52;96232.09;;;12.07;65.91
44001;BME280;29660;42.892;24.710;2023-11-21T15:56:18;96358.81;;;12.75;67.92
44001;BME280;29660;42.892;24.710;2023-11-21T16:01:41;96352.53;;;12.36;71.62
44001;BME280;29660;42.892;24.710;2023-11-21T16:07:05;96295.91;;;11.99;71.50
44001;BME280;29660;42.892;24.710;2023-11-21T16:12:28;96370.13;;;12.37;74.07
44001;BME280;29660;42.892;24.710;2023-11-21T16:17:51;96368.25;;;12.29;76.00
44001;BME280;29660;42.892;24.710;2023-11-21T16:23:13;96239.00;;;11.33;81.14
44001;BME280;29660;42.892;24.710;2023-11-21T16:28:38;96358.16;;;12.09;82.00
44001;BME280;29660;42.892;24.710;2023-11-21T16:34:11;96356.44;;;12.13;81.03
44001;BME280;29660;42.892;24.710;2023-11-21T16:39:40;96351.84;;;12.04;82.15
44001;BME280;29660;42.892;24.710;2023-11-21T16:45:05;96353.09;;;11.98;84.62
44001;BME280;29660;42.892;24.710;2023-11-21T16:50:27;96306.75;;;11.54;85.13
44001;BME280;29660;42.892;24.710;2023-11-21T16:55:49;96339.03;;;11.75;87.28
44001;BME280;29660;42.892;24.710;2023-11-21T17:01:12;96329.25;;;11.71;86.59
44001;BME280;29660;42.892;24.710;2023-11-21T17:06:35;96340.66;;;11.45;92.44
44001;BME280;29660;42.892;24.710;2023-11-21T17:11:58;96327.94;;;11.51;91.85
44001;BME280;29660;42.892;24.710;2023-11-21T17:17:22;96328.84;;;11.38;93.02
44001;BME280;29660;42.892;24.710;2023-11-21T17:22:44;96204.63;;;10.61;93.04
44001;BME280;29660;42.892;24.710;2023-11-21T17:28:06;96331.31;;;11.34;94.36
44001;BME280;29660;42.892;24.710;2023-11-21T17:33:28;96331.66;;;11.33;93.78
44001;BME280;29660;42.892;24.710;2023-11-21T17:38:51;96334.88;;;11.21;97.07
44001;BME280;29660;42.892;24.710;2023-11-21T17:44:14;96327.00;;;11.16;96.34
44001;BME280;29660;42.892;24.710;2023-11-21T17:49:36;96205.03;;;10.23;98.42
44001;BME280;29660;42.892;24.710;2023-11-21T17:55:00;96321.81;;;10.88;99.67
44001;BME280;29660;42.892;24.710;2023-11-21T18:00:23;96147.25;;;9.65;98.99
44001;BME280;29660;42.892;24.710;2023-11-21T18:05:48;96304.50;;;10.77;98.19
44001;BME280;29660;42.892;24.710;2023-11-21T18:11:10;96309.66;;;10.51;100.00
44001;BME280;29660;42.892;24.710;2023-11-21T18:16:33;96301.84;;;10.54;99.82
44001;BME280;29660;42.892;24.710;2023-11-21T18:21:56;96273.72;;;10.48;99.67
44001;BME280;29660;42.892;24.710;2023-11-21T18:27:19;96293.16;;;10.49;100.00
44001;BME280;29660;42.892;24.710;2023-11-21T18:32:43;96278.81;;;10.36;100.00
44001;BME280;29660;42.892;24.710;2023-11-21T18:38:05;96288.31;;;10.28;100.00
44001;BME280;29660;42.892;24.710;2023-11-21T18:43:27;96169.84;;;9.53;100.00
44001;BME280;29660;42.892;24.710;2023-11-21T18:48:49;96289.31;;;10.19;100.00
44001;BME280;29660;42.892;24.710;2023-11-21T18:54:12;96284.59;;;10.16;100.00
44001;BME280;29660;42.892;24.710;2023-11-21T18:59:35;96258.78;;;10.02;100.00
44001;BME280;29660;42.892;24.710;2023-11-21T19:04:57;96148.63;;;9.26;100.00
44001;BME280;29660;42.892;24.710;2023-11-21T19:10:21;96260.63;;;10.02;100.00
44001;BME280;29660;42.892;24.710;2023-11-21T19:15:44;96212.72;;;9.66;100.00
44001;BME280;29660;42.892;24.710;2023-11-21T19:21:12;96182.00;;;9.46;100.00
44001;BME280;29660;42.892;24.710;2023-11-21T19:26:37;96262.50;;;10.01;100.00
44001;BME280;29660;42.892;24.710;2023-11-21T19:32:00;96245.81;;;9.87;100.00
44001;BME280;29660;42.892;24.710;2023-11-21T19:37:22;96255.47;;;9.83;100.00
44001;BME280;29660;42.892;24.710;2023-11-21T19:42:44;96258.81;;;9.89;100.00
44001;BME280;29660;42.892;24.710;2023-11-21T19:48:06;96258.63;;;9.85;100.00
44001;BME280;29660;42.892;24.710;2023-11-21T19:53:31;96255.09;;;9.76;100.00
44001;BME280;29660;42.892;24.710;2023-11-21T19:58:54;96171.78;;;9.12;100.00
44001;BME280;29660;42.892;24.710;2023-11-21T20:04:16;96151.50;;;8.88;100.00
44001;BME280;29660;42.892;24.710;2023-11-21T20:09:38;96243.13;;;9.37;100.00
44001;BME280;29660;42.892;24.710;2023-11-21T20:15:01;96114.91;;;8.57;100.00
44001;BME280;29660;42.892;24.710;2023-11-21T20:20:25;96246.47;;;9.29;100.00
44001;BME280;29660;42.892;24.710;2023-11-21T20:25:47;96190.53;;;8.93;100.00
44001;BME280;29660;42.892;24.710;2023-11-21T20:31:10;96241.75;;;9.12;100.00
44001;BME280;29660;42.892;24.710;2023-11-21T20:36:33;96155.66;;;8.53;100.00
44001;BME280;29660;42.892;24.710;2023-11-21T20:41:56;96142.84;;;8.41;100.00
44001;BME280;29660;42.892;24.710;2023-11-21T20:47:19;96205.69;;;8.65;100.00
44001;BME280;29660;42.892;24.710;2023-11-21T20:52:41;96247.84;;;8.85;100.00
44001;BME280;29660;42.892;24.710;2023-11-21T20:58:03;95943.59;;;6.36;100.00
44001;BME280;29660;42.892;24.710;2023-11-21T21:03:26;96250.50;;;8.52;100.00
44001;BME280;29660;42.892;24.710;2023-11-21T21:08:48;96089.88;;;7.33;100.00
44001;BME280;29660;42.892;24.710;2023-11-21T21:14:10;96261.84;;;8.25;100.00
44001;BME280;29660;42.892;24.710;2023-11-21T21:19:32;96269.63;;;8.17;100.00
44001;BME280;29660;42.892;24.710;2023-11-21T21:24:55;96184.00;;;7.54;100.00
44001;BME280;29660;42.892;24.710;2023-11-21T21:30:17;96272.25;;;8.03;100.00
44001;BME280;29660;42.892;24.710;2023-11-21T21:35:40;96285.94;;;7.91;100.00
44001;BME280;29660;42.892;24.710;2023-11-21T21:41:03;96276.91;;;7.92;100.00
44001;BME280;29660;42.892;24.710;2023-11-21T21:46:25;96154.44;;;7.04;100.00
44001;BME280;29660;42.892;24.710;2023-11-21T21:51:48;96280.22;;;7.84;100.00
44001;BME280;29660;42.892;24.710;2023-11-21T21:57:10;96285.00;;;7.82;100.00
44001;BME280;29660;42.892;24.710;2023-11-21T22:02:32;96304.44;;;7.77;100.00
44001;BME280;29660;42.892;24.710;2023-11-21T22:07:54;96306.88;;;7.55;100.00
44001;BME280;29660;42.892;24.710;2023-11-21T22:13:16;96315.84;;;7.59;100.00
44001;BME280;29660;42.892;24.710;2023-11-21T22:18:38;96305.72;;;7.61;100.00
44001;BME280;29660;42.892;24.710;2023-11-21T22:24:02;96299.53;;;7.66;100.00
44001;BME280;29660;42.892;24.710;2023-11-21T22:29:25;96309.09;;;7.67;100.00
44001;BME280;29660;42.892;24.710;2023-11-21T22:34:47;96313.56;;;7.71;100.00
44001;BME280;29660;42.892;24.710;2023-11-21T22:40:10;96285.06;;;7.10;100.00
44001;BME280;29660;42.892;24.710;2023-11-21T22:45:32;96312.78;;;7.71;100.00
44001;BME280;29660;42.892;24.710;2023-11-21T22:50:55;96241.16;;;7.23;100.00
44001;BME280;29660;42.892;24.710;2023-11-21T22:56:17;95906.13;;;5.04;100.00
44001;BME280;29660;42.892;24.710;2023-11-21T23:01:46;96305.38;;;7.68;100.00
44001;BME280;29660;42.892;24.710;2023-11-21T23:07:10;96295.31;;;7.65;100.00
44001;BME280;29660;42.892;24.710;2023-11-21T23:12:33;96292.66;;;7.65;100.00
44001;BME280;29660;42.892;24.710;2023-11-21T23:17:56;96284.41;;;7.66;100.00
44001;BME280;29660;42.892;24.710;2023-11-21T23:23:18;96279.97;;;7.61;100.00
44001;BME280;29660;42.892;24.710;2023-11-21T23:28:40;96288.38;;;7.69;100.00
44001;BME280;29660;42.892;24.710;2023-11-21T23:34:03;96289.22;;;7.64;100.00
44001;BME280;29660;42.892;24.710;2023-11-21T23:39:26;96296.59;;;7.48;100.00
44001;BME280;29660;42.892;24.710;2023-11-21T23:44:48;96289.72;;;7.47;100.00
44001;BME280;29660;42.892;24.710;2023-11-21T23:50:12;96294.41;;;7.50;100.00
44001;BME280;29660;42.892;24.710;2023-11-21T23:55:34;96205.53;;;6.86;100.00
